createdAt,value
2022-08-19T00:04:39.291Z,957.68
2022-08-19T00:09:40.823Z,957.79
2022-08-19T00:14:42.025Z,957.83
2022-08-19T00:19:43.496Z,957.81
2022-08-19T00:24:49.542Z,957.86
2022-08-19T00:29:52.376Z,957.7
2022-08-19T00:34:48.740Z,957.5
2022-08-19T00:39:50.614Z,957.39
2022-08-19T00:44:51.836Z,957.3
2022-08-19T00:49:53.288Z,957.37
2022-08-19T00:54:55.043Z,957.35
2022-08-19T01:00:02.112Z,957.11
2022-08-19T01:04:58.492Z,957.12
2022-08-19T01:09:59.897Z,957.26
2022-08-19T01:15:01.192Z,957.3
2022-08-19T01:20:02.994Z,957.12
2022-08-19T01:25:07.958Z,957.15
2022-08-19T01:30:07.234Z,957.24
2022-08-19T01:35:08.373Z,957.16
2022-08-19T01:40:10.051Z,957.22
2022-08-19T01:45:11.942Z,957.26
2022-08-19T01:50:13.548Z,957.37
2022-08-19T01:55:15.204Z,957.46
2022-08-19T02:00:16.932Z,957.48
2022-08-19T02:05:18.431Z,957.56
2022-08-19T02:10:20.435Z,957.37
2022-08-19T02:15:22.308Z,957.34
2022-08-19T02:20:23.609Z,957.6
2022-08-19T02:25:25.555Z,957.66
2022-08-19T02:30:27.692Z,957.74
2022-08-19T02:35:28.903Z,957.74
2022-08-19T02:40:30.125Z,957.75
2022-08-19T02:45:31.954Z,957.71
2022-08-19T02:50:34.015Z,957.54
2022-08-19T02:55:45.653Z,957.39
2022-08-19T03:00:37.704Z,957.32
2022-08-19T03:05:46.904Z,957.27
2022-08-19T03:10:40.856Z,957.24
2022-08-19T03:15:42.303Z,957.2
2022-08-19T03:20:44.033Z,957.36
2022-08-19T03:25:45.835Z,957.42
2022-08-19T03:30:48.015Z,957.44
2022-08-19T03:35:49.853Z,957.64
2022-08-19T03:40:52.026Z,957.59
2022-08-19T03:45:54.040Z,957.62
2022-08-19T03:50:55.492Z,957.56
2022-08-19T03:55:57.542Z,957.56
2022-08-19T04:00:59.384Z,957.55
2022-08-19T04:06:01.140Z,957.44
2022-08-19T04:11:02.855Z,957.43
2022-08-19T04:16:04.342Z,957.39
2022-08-19T04:21:05.825Z,957.38
2022-08-19T04:26:07.660Z,957.35
2022-08-19T04:31:09.788Z,957.4
2022-08-19T04:36:11.270Z,957.52
2022-08-19T04:41:13.088Z,957.53
2022-08-19T04:46:18.174Z,957.61
2022-08-19T04:51:16.441Z,957.65
2022-08-19T04:56:18.393Z,957.73
2022-08-19T05:01:20.268Z,957.95
2022-08-19T05:06:22.269Z,957.87
2022-08-19T05:11:26.523Z,957.91
2022-08-19T05:16:25.344Z,958.03
2022-08-19T05:21:26.808Z,958.15
2022-08-19T05:26:28.901Z,958.14
2022-08-19T05:31:30.499Z,958.09
2022-08-19T05:36:32.173Z,958.08
2022-08-19T05:41:33.565Z,958
2022-08-19T05:46:35.328Z,957.96
2022-08-19T05:51:37.038Z,957.86
2022-08-19T05:56:38.996Z,957.87
2022-08-19T06:01:40.765Z,957.81
2022-08-19T06:06:42.211Z,957.82
2022-08-19T06:11:43.995Z,957.86
2022-08-19T06:16:46.234Z,957.83
2022-08-19T06:21:48.223Z,957.98
2022-08-19T06:26:49.938Z,958.1
2022-08-19T06:31:51.540Z,958.08
2022-08-19T06:36:53.591Z,958.02
2022-08-19T06:41:56.861Z,958.08
2022-08-19T06:46:56.402Z,958.04
2022-08-19T06:51:57.794Z,958.04
2022-08-19T06:56:59.599Z,958.03
2022-08-19T07:02:01.670Z,958.09
2022-08-19T07:07:07.832Z,958.02
2022-08-19T07:12:06.931Z,958.02
2022-08-19T07:17:07.260Z,958
2022-08-19T07:22:08.639Z,958.06
2022-08-19T07:27:10.434Z,957.96
2022-08-19T07:32:11.537Z,957.85
2022-08-19T07:37:13.241Z,957.76
2022-08-19T07:42:15.211Z,957.57
2022-08-19T07:47:48.608Z,957.52
2022-08-19T07:52:18.616Z,957.6
2022-08-19T07:57:20.770Z,957.74
2022-08-19T08:02:22.602Z,957.73
2022-08-19T08:07:24.087Z,957.82
2022-08-19T08:12:33.992Z,957.85
2022-08-19T08:17:31.214Z,957.72
2022-08-19T08:22:29.120Z,957.66
2022-08-19T08:27:31.005Z,957.69
2022-08-19T08:32:32.545Z,957.85
2022-08-19T08:37:33.906Z,957.94
2022-08-19T08:42:35.560Z,957.98
2022-08-19T08:47:37.295Z,958.08
2022-08-19T08:52:39.355Z,958.16
2022-08-19T08:57:41.225Z,958.17
2022-08-19T09:02:43.309Z,958.15
2022-08-19T09:07:47.342Z,958.17
2022-08-19T09:12:46.541Z,958.19
2022-08-19T09:17:50.082Z,958.2
2022-08-19T09:22:50.702Z,958.23
2022-08-19T09:27:52.627Z,958.26
2022-08-19T09:32:54.554Z,958.31
2022-08-19T09:37:57.496Z,958.28
2022-08-19T09:42:57.747Z,958.24
2022-08-19T09:47:59.050Z,958.26
2022-08-19T09:53:00.835Z,958.27
2022-08-19T09:58:02.713Z,958.25
2022-08-19T10:03:04.691Z,958.19
2022-08-19T10:08:06.415Z,958.21
2022-08-19T10:13:08.108Z,958.23
2022-08-19T10:18:15.747Z,958.28
2022-08-19T10:23:17.222Z,958.37
2022-08-19T10:28:19.658Z,958.38
2022-08-19T11:33:39.339Z,958.16
2022-08-19T11:43:42.738Z,958.11
2022-08-19T11:48:44.646Z,958.07
2022-08-19T11:53:46.073Z,958.08
2022-08-19T11:58:47.249Z,958.09
2022-08-19T12:08:50.084Z,958.1
2022-08-19T12:13:51.426Z,958.12
2022-08-19T12:18:53.159Z,958.07
2022-08-19T12:23:55.875Z,958.06
2022-08-19T12:28:55.792Z,958.12
2022-08-19T12:33:57.889Z,958.2
2022-08-19T12:38:59.190Z,958.11
2022-08-19T12:44:00.388Z,958.26
2022-08-19T12:49:02.736Z,958.3
2022-08-19T12:54:04.452Z,958.29
2022-08-19T12:59:06.491Z,958.39
2022-08-19T13:04:08.195Z,958.43
2022-08-19T13:09:09.423Z,958.49
2022-08-19T13:14:10.816Z,958.4
2022-08-19T13:19:12.652Z,958.39
2022-08-19T13:24:14.234Z,958.4
2022-08-19T13:29:15.401Z,958.4
2022-08-19T13:34:16.747Z,958.32
2022-08-19T13:39:18.616Z,958.34
2022-08-19T13:44:20.396Z,958.29
2022-08-19T13:49:21.786Z,958.24
2022-08-19T13:54:23.582Z,958.3
2022-08-19T13:59:25.074Z,958.27
2022-08-19T14:04:27.029Z,958.22
2022-08-19T14:09:28.671Z,958.2
2022-08-19T14:14:30.098Z,958.17
2022-08-19T14:19:31.311Z,958.17
2022-08-19T14:24:33.100Z,958.15
2022-08-19T14:29:34.820Z,958.21
2022-08-19T14:34:36.335Z,958.22
2022-08-19T14:39:37.967Z,958.34
2022-08-19T14:44:39.239Z,958.42
2022-08-19T14:49:41.710Z,958.49
2022-08-19T14:54:42.833Z,958.42
2022-08-19T14:59:44.922Z,958.49
2022-08-19T15:04:47.050Z,958.53
2022-08-19T15:09:48.994Z,958.55
2022-08-19T15:14:50.440Z,958.51
2022-08-19T15:19:51.892Z,958.52
2022-08-19T15:24:53.844Z,958.49
2022-08-19T15:29:56.557Z,958.52
2022-08-19T15:34:56.895Z,958.57
2022-08-19T15:39:58.731Z,958.66
2022-08-19T15:45:00.448Z,958.7
2022-08-19T15:50:02.258Z,958.79
2022-08-19T15:55:04.241Z,958.83
2022-08-19T16:00:06.012Z,958.93
2022-08-19T16:05:07.662Z,958.92
2022-08-19T16:10:25.984Z,958.92
2022-08-19T16:15:11.427Z,958.89
2022-08-19T16:20:13.594Z,958.87
2022-08-19T16:25:14.816Z,958.92
2022-08-19T16:30:16.772Z,958.96
2022-08-19T16:35:17.957Z,958.96
2022-08-19T16:40:19.577Z,959.04
2022-08-19T16:45:21.472Z,959.17
2022-08-19T16:50:33.535Z,959.2
2022-08-19T16:55:25.434Z,959.23
2022-08-19T17:00:27.563Z,959.24
2022-08-19T17:05:29.086Z,959.31
2022-08-19T17:10:31.159Z,959.4
2022-08-19T17:15:33.111Z,959.42
2022-08-19T17:20:34.280Z,959.48
2022-08-19T17:25:36.028Z,959.54
2022-08-19T17:30:38.176Z,959.58
2022-08-19T17:35:39.555Z,959.66
2022-08-19T17:40:40.992Z,959.73
2022-08-19T17:45:42.719Z,959.78
2022-08-19T17:50:44.286Z,959.82
2022-08-19T17:55:48.065Z,959.88
2022-08-19T18:00:53.438Z,959.91
2022-08-19T18:05:49.028Z,959.91
2022-08-19T18:10:50.361Z,960.04
2022-08-19T18:15:52.174Z,960.08
2022-08-19T18:20:53.835Z,960.09
2022-08-19T18:25:55.475Z,960.03
2022-08-19T18:30:57.395Z,959.99
2022-08-19T18:35:58.611Z,959.98
2022-08-19T18:41:00.543Z,960.03
2022-08-19T18:46:01.785Z,960.21
2022-08-19T18:51:03.063Z,960.26
2022-08-19T18:56:05.131Z,960.33
2022-08-19T19:01:07.173Z,960.46
2022-08-19T19:06:09.221Z,960.45
2022-08-19T19:11:10.646Z,960.48
2022-08-19T19:16:11.953Z,960.45
2022-08-19T19:21:13.358Z,960.49
2022-08-19T19:26:14.881Z,960.48
2022-08-19T19:31:16.764Z,960.46
2022-08-19T19:36:18.268Z,960.46
2022-08-19T19:41:20.100Z,960.6
2022-08-19T19:46:21.565Z,960.6
2022-08-19T19:51:22.844Z,960.66
2022-08-19T19:56:24.925Z,960.68
2022-08-19T20:01:26.787Z,960.68
2022-08-19T20:06:28.215Z,960.83
2022-08-19T20:11:29.707Z,960.93
2022-08-19T20:16:31.085Z,961
2022-08-19T20:21:32.851Z,961.08
2022-08-19T20:26:34.737Z,961.08
2022-08-19T20:31:41.596Z,961.11
2022-08-19T20:36:38.026Z,961.14
2022-08-19T20:41:40.007Z,961.2
2022-08-19T20:46:41.082Z,961.27
2022-08-19T20:51:43.006Z,961.28
2022-08-19T20:56:44.417Z,961.3
2022-08-19T21:01:46.071Z,961.27
2022-08-19T21:06:47.495Z,961.31
2022-08-19T21:11:49.551Z,961.31
2022-08-19T21:16:51.456Z,961.35
2022-08-19T21:21:53.415Z,961.3
2022-08-19T21:26:55.481Z,961.34
2022-08-19T21:31:57.093Z,961.39
2022-08-19T21:36:58.497Z,961.39
2022-08-19T21:42:00.465Z,961.45
2022-08-19T21:47:02.189Z,961.51
2022-08-19T21:52:03.635Z,961.59
2022-08-19T21:57:05.229Z,961.59
2022-08-19T22:12:09.675Z,961.53
2022-08-19T22:17:11.343Z,961.49
2022-08-19T22:22:13.439Z,961.46
2022-08-19T22:27:15.593Z,961.48
2022-08-19T22:32:17.846Z,961.47
2022-08-19T22:37:19.030Z,961.38
2022-08-19T22:42:20.454Z,961.45
2022-08-19T22:47:22.390Z,961.43
2022-08-19T22:52:23.586Z,961.36
2022-08-19T22:57:24.835Z,961.33
2022-08-19T23:02:26.688Z,961.26
2022-08-19T23:07:28.623Z,961.31
2022-08-19T23:12:30.670Z,961.34
2022-08-19T23:17:32.153Z,961.29
2022-08-19T23:22:33.650Z,961.32
2022-08-19T23:27:35.752Z,961.39
2022-08-19T23:32:37.125Z,961.32
2022-08-19T23:37:38.404Z,961.29
2022-08-19T23:42:40.473Z,961.29
2022-08-19T23:47:42.090Z,961.32
2022-08-19T23:52:44.170Z,961.39
2022-08-19T23:57:45.722Z,961.38
